Time;durP1;ratioP1;P1;durP2;ratioP2;P2;SDS_P1;SDS_P2;PMS_P1;PMS_P2;Temp;Humidity;BMP_temperature;BMP_pressure;BME280_temperature;BME280_humidity;BME280_pressure;Samples;Min_cycle;Max_cycle;Signal;HPM_P1;HPM_P2
2024/01/10 07:25:10;;;;;;;13.02;7.85;;;;;;;-4.45;49.44;94945.13;4977351;28;20053;-66
2024/01/10 07:27:37;;;;;;;15.13;9.45;;;;;;;-4.28;48.14;94960.34;4970727;28;20363;-66
2024/01/10 07:30:13;;;;;;;16.60;10.32;;;;;;;-4.61;47.53;94961.00;4975165;28;20031;-66
2024/01/10 07:32:42;;;;;;;14.40;9.40;;;;;;;-4.70;47.21;94959.56;4972951;28;20478;-66
2024/01/10 07:35:10;;;;;;;17.92;10.35;;;;;;;-4.73;48.14;94959.16;4967762;28;20049;-66
2024/01/10 07:37:38;;;;;;;19.65;11.45;;;;;;;-4.79;47.70;94921.78;5026702;28;20633;-67
2024/01/10 07:40:07;;;;;;;18.75;11.55;;;;;;;-4.65;47.97;94967.56;4997431;28;20513;-66
2024/01/10 07:42:33;;;;;;;18.13;11.85;;;;;;;-4.69;48.24;94968.97;5044493;28;20563;-66
2024/01/10 07:44:59;;;;;;;20.02;11.45;;;;;;;-4.66;47.72;94972.94;4975160;28;20032;-67
2024/01/10 07:47:24;;;;;;;19.92;12.88;;;;;;;-4.47;47.85;94957.47;4975219;28;20099;-67
2024/01/10 07:49:50;;;;;;;20.48;13.90;;;;;;;-4.35;47.21;94964.75;4975857;28;20090;-67
2024/01/10 07:52:19;;;;;;;18.20;11.57;;;;;;;-4.35;47.64;94956.94;4975840;28;20046;-66
2024/01/10 07:54:44;;;;;;;17.33;10.98;;;;;;;-4.58;47.47;94928.66;4975720;28;20121;-66
2024/01/10 07:57:09;;;;;;;12.85;9.15;;;;;;;-4.28;47.52;94979.34;4973259;28;20038;-66
2024/01/10 07:59:35;;;;;;;15.23;10.15;;;;;;;-4.32;47.21;94972.13;5048041;28;20038;-66
2024/01/10 08:02:00;;;;;;;10.52;7.88;;;;;;;-4.28;47.50;94978.53;4975036;28;20581;-66
2024/01/10 08:04:29;;;;;;;12.02;8.57;;;;;;;-4.33;47.32;94967.94;4973810;28;20038;-66
2024/01/10 08:06:55;;;;;;;14.00;8.27;;;;;;;-4.47;47.22;94970.47;4975653;28;20057;-67
2024/01/10 08:09:21;;;;;;;14.13;8.65;;;;;;;-4.65;46.41;94974.56;5038628;28;20129;-66
2024/01/10 08:11:47;;;;;;;13.18;7.50;;;;;;;-4.56;46.93;94976.81;4975965;28;20422;-67
2024/01/10 08:14:13;;;;;;;11.90;7.60;;;;;;;-4.66;46.71;94965.97;4973305;28;20038;-66
2024/01/10 08:16:38;;;;;;;11.60;7.32;;;;;;;-4.54;46.88;94972.22;4970999;28;20054;-66
2024/01/10 08:19:04;;;;;;;11.45;8.32;;;;;;;-4.33;46.16;94973.13;4976007;28;20041;-66
2024/01/10 08:21:29;;;;;;;9.65;6.68;;;;;;;-4.78;46.30;94967.47;4975268;28;20111;-66
2024/01/10 08:23:54;;;;;;;11.13;6.50;;;;;;;-4.85;46.89;94971.03;4975048;28;20394;-66
2024/01/10 08:26:20;;;;;;;23.92;10.88;;;;;;;-4.58;47.09;94972.78;4973660;28;20061;-66
2024/01/10 08:28:45;;;;;;;10.68;7.35;;;;;;;-4.35;47.80;94980.31;4972478;28;20556;-66
2024/01/10 08:31:12;;;;;;;13.13;8.00;;;;;;;-4.62;47.16;94982.75;4973273;28;20069;-66
2024/01/10 08:33:38;;;;;;;8.27;6.40;;;;;;;-4.54;47.56;94987.78;4972786;28;20460;-66
2024/01/10 08:36:04;;;;;;;10.07;6.80;;;;;;;-4.43;48.48;94982.06;4972403;28;20022;-67
2024/01/10 08:38:30;;;;;;;12.00;8.57;;;;;;;-4.03;48.59;94982.25;4975587;28;20042;-67
2024/01/10 08:40:56;;;;;;;10.65;6.55;;;;;;;-3.85;48.53;94974.72;4974941;28;20986;-66
2024/01/10 08:43:22;;;;;;;10.55;6.30;;;;;;;-4.12;48.08;94980.81;4974362;28;20728;-67
2024/01/10 08:45:47;;;;;;;16.80;10.60;;;;;;;-3.72;48.29;94985.16;4979096;28;20847;-67
2024/01/10 08:48:13;;;;;;;10.43;7.03;;;;;;;-3.88;48.51;94969.91;4973629;28;20531;-66
2024/01/10 08:50:38;;;;;;;9.52;7.25;;;;;;;-3.59;48.59;94986.97;4975140;28;20446;-66
2024/01/10 08:53:05;;;;;;;12.20;7.72;;;;;;;-3.69;48.72;94974.38;4968138;28;20033;-67
2024/01/10 08:55:32;;;;;;;9.63;6.57;;;;;;;-3.71;49.84;94973.75;4981436;28;20520;-68
2024/01/10 08:57:57;;;;;;;9.63;7.03;;;;;;;-3.56;50.05;94984.78;4969702;28;20153;-67
2024/01/10 09:00:24;;;;;;;12.10;7.85;;;;;;;-3.45;49.56;94980.81;4970692;28;20436;-68
2024/01/10 09:02:50;;;;;;;14.18;8.35;;;;;;;-3.45;49.95;94980.81;4975888;28;20036;-68
2024/01/10 09:05:15;;;;;;;11.75;6.95;;;;;;;-3.79;50.25;94968.72;4974158;28;20042;-67
2024/01/10 09:07:42;;;;;;;12.90;8.27;;;;;;;-3.65;50.37;94975.56;4983745;28;20496;-68
2024/01/10 09:10:08;;;;;;;11.40;7.47;;;;;;;-3.41;50.54;94970.78;4976552;28;20079;-68
2024/01/10 09:12:34;;;;;;;8.50;6.40;;;;;;;-3.20;50.07;94975.84;4976403;28;20047;-67
2024/01/10 09:15:00;;;;;;;8.20;6.15;;;;;;;-3.04;49.83;94980.66;4981912;28;20082;-67
2024/01/10 09:17:26;;;;;;;16.02;9.77;;;;;;;-3.39;51.08;94982.63;4980978;28;20107;-67
2024/01/10 09:19:51;;;;;;;13.57;7.47;;;;;;;-3.57;52.02;94982.41;4976949;28;20490;-67
2024/01/10 09:22:17;;;;;;;8.85;6.45;;;;;;;-4.12;52.00;94978.22;4977547;28;20564;-68
2024/01/10 09:24:42;;;;;;;10.88;7.10;;;;;;;-3.79;51.63;94968.72;5036483;28;20073;-67
2024/01/10 09:27:08;;;;;;;9.45;7.00;;;;;;;-3.59;51.21;94971.38;4982585;28;20176;-67
2024/01/10 09:29:34;;;;;;;13.45;8.50;;;;;;;-3.81;50.67;94955.16;4972840;28;20069;-68
2024/01/10 09:32:00;;;;;;;11.30;7.70;;;;;;;-3.64;50.67;94955.56;4975978;28;20194;-67
2024/01/10 09:34:25;;;;;;;10.15;7.03;;;;;;;-3.51;50.68;94962.59;4974761;28;20045;-68
2024/01/10 09:36:52;;;;;;;13.13;8.63;;;;;;;-3.72;51.33;94969.56;4978418;28;20574;-68
2024/01/10 09:39:17;;;;;;;14.25;8.27;;;;;;;-3.40;51.27;94962.00;4976873;28;20577;-67
2024/01/10 09:41:48;;;;;;;12.27;7.80;;;;;;;-3.27;50.62;94969.84;4979893;28;20409;-67
2024/01/10 09:44:13;;;;;;;18.25;8.85;;;;;;;-3.11;49.39;94966.81;4981784;28;20101;-68
2024/01/10 09:46:40;;;;;;;11.68;7.57;;;;;;;-3.61;49.58;94963.75;4976426;28;20079;-67
2024/01/10 09:49:06;;;;;;;11.05;8.20;;;;;;;-3.42;49.58;94958.81;4986491;28;20761;-67
2024/01/10 09:51:33;;;;;;;12.20;8.10;;;;;;;-3.24;49.84;94965.03;5050026;28;20034;-66
2024/01/10 09:54:02;;;;;;;14.68;10.02;;;;;;;-3.10;48.79;94971.03;4979180;28;20079;-67
2024/01/10 09:56:29;;;;;;;13.27;9.38;;;;;;;-3.34;49.34;94961.22;5050875;28;20042;-67
2024/01/10 09:58:58;;;;;;;20.90;9.45;;;;;;;-3.57;50.36;94956.38;4980706;28;20038;-67
2024/01/10 10:01:23;;;;;;;15.57;9.25;;;;;;;-3.07;49.68;94965.41;4979042;28;20076;-67
2024/01/10 10:03:50;;;;;;;14.40;8.52;;;;;;;-3.41;49.48;94953.41;4977800;28;20042;-67
2024/01/10 10:06:16;;;;;;;12.25;8.45;;;;;;;-3.02;49.01;94944.78;4981627;28;20654;-67
2024/01/10 10:08:41;;;;;;;13.30;8.77;;;;;;;-3.66;50.08;94945.34;4973896;28;20042;-67
2024/01/10 10:11:12;;;;;;;14.38;8.68;;;;;;;-3.18;50.19;94945.22;4977757;28;20063;-67
2024/01/10 10:13:41;;;;;;;12.30;8.88;;;;;;;-3.01;49.37;94941.19;4977825;28;20250;-67
2024/01/10 10:16:07;;;;;;;13.10;8.98;;;;;;;-2.89;48.78;94939.59;4976457;28;20065;-67
2024/01/10 10:18:34;;;;;;;16.25;9.07;;;;;;;-2.80;48.40;94924.56;4983708;28;20044;-67
2024/01/10 10:21:13;;;;;;;13.77;8.50;;;;;;;-2.86;48.57;94927.97;4980426;28;20022;-67
2024/01/10 10:23:56;;;;;;;12.73;8.10;;;;;;;-2.94;48.65;94918.56;5039909;28;20048;-67
2024/01/10 10:26:23;;;;;;;12.48;8.88;;;;;;;-3.04;49.13;94909.56;4975889;28;20054;-67
2024/01/10 10:28:50;;;;;;;15.15;9.20;;;;;;;-3.34;49.60;94898.78;4983370;28;20118;-67
2024/01/10 10:31:17;;;;;;;14.77;8.10;;;;;;;-3.08;50.00;94887.56;4975904;28;20073;-67
2024/01/10 10:33:45;;;;;;;11.25;8.48;;;;;;;-2.64;49.11;94905.91;4975347;28;20441;-67
2024/01/10 10:36:10;;;;;;;14.77;9.73;;;;;;;-2.29;48.60;94901.94;4977571;28;20979;-67
2024/01/10 10:38:37;;;;;;;13.48;8.65;;;;;;;-2.67;47.48;94882.84;4978354;28;21505;-67
2024/01/10 10:41:10;;;;;;;14.18;9.07;;;;;;;-2.69;49.07;94903.09;4978941;28;20038;-67
2024/01/10 10:43:37;;;;;;;17.77;9.15;;;;;;;-2.80;49.00;94895.91;4975114;28;20034;-66
2024/01/10 10:46:04;;;;;;;14.52;9.13;;;;;;;-2.77;48.90;94896.31;4979304;28;20320;-67
2024/01/10 10:48:33;;;;;;;13.07;8.98;;;;;;;-2.71;48.63;94890.28;4978640;28;20517;-67
2024/01/10 10:51:15;;;;;;;13.65;9.48;;;;;;;-3.33;50.69;94887.38;4978045;28;20026;-67
2024/01/10 10:53:45;;;;;;;14.65;9.75;;;;;;;-3.42;50.40;94885.97;4977327;28;20041;-67
2024/01/10 10:56:11;;;;;;;13.77;10.40;;;;;;;-3.01;50.61;94878.72;4977609;28;20069;-67
2024/01/10 10:58:42;;;;;;;18.63;9.95;;;;;;;-3.23;50.09;94870.38;4979544;28;20551;-66
2024/01/10 11:01:09;;;;;;;14.75;9.30;;;;;;;-3.29;50.18;94858.16;4979426;28;20042;-67
2024/01/10 11:03:37;;;;;;;20.90;11.38;;;;;;;-2.76;50.63;94868.47;4979994;28;20057;-67
2024/01/10 11:06:03;;;;;;;17.65;10.77;;;;;;;-2.88;50.15;94880.53;5039481;28;20018;-67
2024/01/10 11:08:33;;;;;;;16.50;11.15;;;;;;;-2.68;50.16;94862.25;5032818;28;20117;-67
2024/01/10 11:11:02;;;;;;;15.18;10.40;;;;;;;-2.91;49.30;94863.50;4970908;28;20041;-67
2024/01/10 11:13:55;;;;;;;17.42;11.27;;;;;;;-2.50;49.45;94863.16;4975275;28;20553;-67
2024/01/10 11:16:33;;;;;;;16.60;11.13;;;;;;;-2.42;49.50;94856.91;4975569;28;20547;-68
2024/01/10 11:19:17;;;;;;;18.30;10.85;;;;;;;-2.45;48.45;94857.34;4976464;28;20548;-67
2024/01/10 11:21:45;;;;;;;15.82;11.15;;;;;;;-2.85;49.89;94854.88;4963606;28;20046;-67
2024/01/10 11:24:11;;;;;;;19.85;12.32;;;;;;;-2.73;49.68;94840.19;4975240;28;20026;-67
2024/01/10 11:26:37;;;;;;;15.82;10.63;;;;;;;-2.71;49.59;94822.56;5030971;28;20092;-67
2024/01/10 11:29:05;;;;;;;18.63;11.07;;;;;;;-2.48;49.28;94842.09;4972136;28;20362;-67
2024/01/10 11:31:31;;;;;;;18.33;11.43;;;;;;;-2.30;49.88;94840.44;4972046;28;20041;-67
2024/01/10 11:33:58;;;;;;;16.60;11.63;;;;;;;-2.06;49.45;94831.09;4971206;28;20091;-67
2024/01/10 11:36:27;;;;;;;27.75;13.13;;;;;;;-2.00;49.17;94830.25;4977219;28;20018;-67
2024/01/10 11:38:56;;;;;;;21.27;11.50;;;;;;;-2.06;49.25;94830.28;4966075;28;20034;-67
2024/01/10 11:41:27;;;;;;;20.88;12.98;;;;;;;-2.21;49.05;94827.97;4975008;28;20632;-67
2024/01/10 11:46:39;;;;;;;20.92;12.32;;;;;;;-2.44;49.48;94817.25;4976649;28;20099;-67
2024/01/10 11:49:15;;;;;;;19.88;13.57;;;;;;;-2.24;48.78;94823.16;4973017;28;20037;-67
2024/01/10 11:51:46;;;;;;;21.88;12.75;;;;;;;-2.53;49.04;94795.03;4981789;28;20045;-67
2024/01/10 11:54:11;;;;;;;20.30;12.90;;;;;;;-1.85;48.92;94807.25;4979121;28;20045;-67
2024/01/10 11:56:44;;;;;;;21.35;12.48;;;;;;;-1.30;48.24;94806.59;4977906;28;20062;-67
2024/01/10 11:59:11;;;;;;;22.17;12.75;;;;;;;-1.14;47.70;94796.41;4973756;28;20037;-67
2024/01/10 12:01:41;;;;;;;19.23;12.20;;;;;;;-1.08;46.86;94797.38;4977452;28;20307;-67
2024/01/10 12:04:07;;;;;;;18.38;11.55;;;;;;;-0.90;46.75;94796.56;4974403;28;20053;-67
2024/01/10 12:06:36;;;;;;;22.13;13.27;;;;;;;-1.26;47.19;94789.50;4975223;28;20026;-67
2024/01/10 12:09:07;;;;;;;22.65;12.68;;;;;;;-1.05;46.56;94778.66;4968754;28;20043;-67
2024/01/10 12:11:33;;;;;;;21.42;12.65;;;;;;;-0.91;46.23;94787.94;4972668;28;20076;-67
2024/01/10 12:13:59;;;;;;;22.17;12.13;;;;;;;-1.10;46.39;94791.56;4975259;28;20863;-67
2024/01/10 12:16:24;;;;;;;24.65;15.85;;;;;;;-1.55;46.65;94796.19;4973994;28;20467;-67
2024/01/10 12:18:51;;;;;;;21.67;12.80;;;;;;;-1.42;47.03;94783.03;4969100;28;20479;-67
2024/01/10 12:21:17;;;;;;;20.95;12.90;;;;;;;-1.41;46.41;94771.59;4976383;28;20034;-67
2024/01/10 12:23:43;;;;;;;20.98;12.93;;;;;;;-1.75;46.56;94754.63;4974941;28;20623;-67
2024/01/10 12:26:11;;;;;;;25.38;13.23;;;;;;;-1.21;47.15;94785.22;4986130;28;20285;-67
2024/01/10 12:28:37;;;;;;;19.75;13.40;;;;;;;-0.68;45.52;94777.59;4974184;28;20042;-67
2024/01/10 12:31:09;;;;;;;20.95;13.63;;;;;;;-0.40;45.84;94776.28;4973304;28;20045;-67
2024/01/10 12:33:37;;;;;;;22.80;12.98;;;;;;;-0.39;45.18;94749.13;4974338;28;20525;-67
2024/01/10 12:36:10;;;;;;;23.90;13.93;;;;;;;-0.15;45.63;94769.09;4975293;28;20034;-68
2024/01/10 12:38:37;;;;;;;26.15;13.93;;;;;;;-0.00;45.65;94779.16;4980081;28;20045;-67
2024/01/10 12:41:04;;;;;;;26.00;13.75;;;;;;;0.05;44.97;94771.44;4970988;28;20361;-67
2024/01/10 12:43:29;;;;;;;21.35;13.18;;;;;;;-0.00;45.41;94773.91;5029070;28;20077;-68
2024/01/10 12:46:12;;;;;;;25.17;16.05;;;;;;;-0.10;45.08;94777.88;4974351;28;20045;-67
2024/01/10 12:48:42;;;;;;;20.67;14.02;;;;;;;-0.13;44.44;94775.69;4982847;28;20557;-67
2024/01/10 12:51:09;;;;;;;22.15;15.05;;;;;;;-0.01;44.25;94770.50;4973165;28;20090;-67
2024/01/10 12:53:36;;;;;;;21.25;12.57;;;;;;;0.17;44.37;94769.63;4975276;28;20077;-67
2024/01/10 12:56:03;;;;;;;25.58;13.68;;;;;;;0.12;44.79;94780.75;4977731;28;20046;-68
2024/01/10 12:58:29;;;;;;;24.80;15.70;;;;;;;0.11;45.03;94779.16;4975437;28;20045;-67
2024/01/10 13:00:55;;;;;;;24.13;14.25;;;;;;;0.15;45.19;94785.56;4972992;28;20045;-67
2024/01/10 13:03:21;;;;;;;22.35;13.40;;;;;;;-0.04;45.49;94747.38;4974745;28;22883;-67
2024/01/10 13:05:47;;;;;;;21.48;13.27;;;;;;;0.36;44.60;94774.53;4980013;28;20474;-68
2024/01/10 13:08:13;;;;;;;18.23;13.15;;;;;;;0.48;44.51;94785.03;4972069;28;20124;-68
2024/01/10 13:10:38;;;;;;;24.63;14.63;;;;;;;0.42;44.76;94782.50;4972804;28;20071;-68
2024/01/10 13:13:04;;;;;;;29.50;15.65;;;;;;;0.34;45.18;94781.03;4974638;28;20060;-67
2024/01/10 13:15:29;;;;;;;22.85;14.40;;;;;;;0.40;44.77;94774.88;4980288;28;20643;-67
2024/01/10 13:17:56;;;;;;;29.58;15.77;;;;;;;0.60;45.43;94783.19;5043745;28;20542;-68
2024/01/10 13:20:21;;;;;;;27.77;17.27;;;;;;;0.59;45.80;94794.72;4977183;28;20053;-67
2024/01/10 13:22:47;;;;;;;41.88;22.15;;;;;;;0.39;46.29;94751.56;4983123;28;20666;-67
2024/01/10 13:25:12;;;;;;;36.78;20.67;;;;;;;0.53;46.38;94774.69;4975981;28;20526;-68
2024/01/10 13:27:38;;;;;;;38.75;20.90;;;;;;;0.54;46.38;94773.66;4972902;28;20057;-68
2024/01/10 13:30:05;;;;;;;43.70;25.48;;;;;;;0.25;46.58;94740.53;4973594;28;20389;-67
2024/01/10 13:32:31;;;;;;;36.60;21.67;;;;;;;0.32;47.61;94777.84;4978130;28;21919;-68
2024/01/10 13:34:57;;;;;;;46.90;24.90;;;;;;;0.22;47.65;94778.38;4974778;28;20038;-68
2024/01/10 13:37:23;;;;;;;28.52;17.45;;;;;;;0.12;47.92;94772.09;4976910;28;20038;-67
2024/01/10 13:39:48;;;;;;;47.90;24.90;;;;;;;0.22;47.87;94767.91;4976318;28;20088;-67
2024/01/10 13:42:14;;;;;;;33.83;19.50;;;;;;;0.30;47.78;94769.44;4975692;28;20041;-68
2024/01/10 13:44:40;;;;;;;39.47;21.45;;;;;;;0.05;48.54;94771.44;4972265;28;20535;-67
2024/01/10 13:47:06;;;;;;;48.05;25.25;;;;;;;-0.13;48.85;94769.66;4970924;28;20892;-68
2024/01/10 13:49:31;;;;;;;36.33;22.10;;;;;;;-0.16;48.62;94773.53;4973210;28;20041;-67
2024/01/10 13:51:57;;;;;;;36.13;23.50;;;;;;;-0.13;48.20;94780.91;4977692;28;20042;-67
2024/01/10 13:54:22;;;;;;;24.60;16.75;;;;;;;-0.19;48.42;94773.94;4974038;28;20095;-68
2024/01/10 13:56:47;;;;;;;22.02;14.05;;;;;;;-0.22;48.29;94771.00;4978381;28;20836;-67
2024/01/10 13:59:13;;;;;;;18.45;14.23;;;;;;;-0.44;48.88;94757.63;5040165;28;20083;-67
2024/01/10 14:01:38;;;;;;;24.10;14.70;;;;;;;-0.44;49.03;94772.50;4979245;28;20052;-68
2024/01/10 14:04:05;;;;;;;21.50;14.13;;;;;;;-0.49;49.10;94781.03;4977142;28;20418;-67
2024/01/10 14:06:30;;;;;;;21.80;14.07;;;;;;;-0.52;49.08;94777.00;4971294;28;20962;-67
2024/01/10 14:08:57;;;;;;;21.92;14.25;;;;;;;-0.56;49.14;94781.09;4976812;28;20038;-67
2024/01/10 14:11:23;;;;;;;26.15;13.90;;;;;;;-0.54;49.18;94789.53;4974982;28;20049;-67
2024/01/10 14:13:49;;;;;;;23.20;13.82;;;;;;;-0.64;49.20;94788.44;4974182;28;20034;-67
2024/01/10 14:16:14;;;;;;;22.55;14.48;;;;;;;-0.70;49.12;94789.31;4977058;28;20436;-67
2024/01/10 14:18:39;;;;;;;22.90;15.40;;;;;;;-0.80;49.52;94787.22;5040411;28;20039;-67
2024/01/10 14:21:05;;;;;;;25.17;17.17;;;;;;;-0.65;49.52;94794.69;4978648;28;20359;-68
2024/01/10 14:23:30;;;;;;;28.60;15.85;;;;;;;-0.87;49.86;94793.53;4977186;28;20436;-67
2024/01/10 14:25:56;;;;;;;22.23;13.93;;;;;;;-1.06;50.13;94788.28;4971534;28;20046;-67
2024/01/10 14:28:21;;;;;;;24.25;15.05;;;;;;;-1.00;50.28;94800.50;4976173;28;20043;-67
2024/01/10 14:30:47;;;;;;;22.25;14.25;;;;;;;-1.03;50.17;94792.31;4973019;28;20052;-67
2024/01/10 14:33:13;;;;;;;25.33;15.10;;;;;;;-0.91;50.06;94794.97;4979479;28;20026;-67
2024/01/10 14:35:39;;;;;;;29.65;16.85;;;;;;;-1.00;49.99;94786.63;4973326;28;20057;-67
2024/01/10 14:38:06;;;;;;;26.92;15.82;;;;;;;-1.05;50.29;94792.50;4979770;28;20042;-67
2024/01/10 14:40:31;;;;;;;25.77;15.43;;;;;;;-1.11;50.26;94775.09;4976430;28;20263;-67
2024/01/10 14:42:56;;;;;;;19.67;13.20;;;;;;;-1.01;50.26;94792.88;4969758;28;20042;-67
2024/01/10 14:45:22;;;;;;;16.20;11.15;;;;;;;-1.14;50.38;94782.56;4972295;28;20030;-67
2024/01/10 14:47:49;;;;;;;26.20;16.15;;;;;;;-1.08;50.32;94786.94;4975666;28;20041;-67
2024/01/10 14:50:15;;;;;;;24.83;16.65;;;;;;;-1.19;50.54;94805.91;4973660;28;20099;-67
2024/01/10 14:52:40;;;;;;;32.60;18.80;;;;;;;-1.31;50.92;94797.22;5037030;28;20485;-67
2024/01/10 14:55:06;;;;;;;32.80;20.75;;;;;;;-1.29;50.74;94789.94;5038668;28;20046;-67
2024/01/10 14:57:32;;;;;;;33.47;21.67;;;;;;;-1.29;50.68;94801.19;4977017;28;20506;-67
2024/01/10 14:59:59;;;;;;;44.80;27.10;;;;;;;-1.45;50.67;94792.09;4975608;28;20053;-68
2024/01/10 15:02:26;;;;;;;39.45;26.00;;;;;;;-1.35;50.72;94803.84;4966975;28;20034;-67
2024/01/10 15:04:52;;;;;;;35.88;23.70;;;;;;;-1.34;50.68;94782.75;4977288;28;20100;-67
2024/01/10 15:07:17;;;;;;;31.30;20.27;;;;;;;-1.23;50.51;94782.06;4974634;28;20698;-67
2024/01/10 15:09:43;;;;;;;35.83;22.30;;;;;;;-1.26;50.55;94790.31;4976166;28;20042;-67
2024/01/10 15:12:09;;;;;;;34.05;20.70;;;;;;;-1.22;50.52;94790.69;5040109;28;20514;-67
2024/01/10 15:14:41;;;;;;;30.38;22.85;;;;;;;-1.25;50.40;94793.72;4974093;28;20045;-67
2024/01/10 15:17:08;;;;;;;44.88;27.20;;;;;;;-1.22;50.56;94794.09;5055143;28;20197;-67
2024/01/10 15:19:35;;;;;;;67.78;40.00;;;;;;;-1.21;50.53;94790.44;4971330;28;20120;-67
2024/01/10 15:22:01;;;;;;;64.85;39.58;;;;;;;-1.27;50.54;94777.50;5043451;28;20042;-67
2024/01/10 15:24:27;;;;;;;47.05;29.67;;;;;;;-1.29;50.66;94790.75;4976454;28;20034;-67
2024/01/10 15:26:55;;;;;;;57.05;28.60;;;;;;;-1.39;50.93;94790.44;4981521;28;20030;-67
2024/01/10 15:29:21;;;;;;;57.60;37.22;;;;;;;-1.46;50.87;94797.53;4978368;28;20042;-67
2024/01/10 15:31:46;;;;;;;38.53;28.38;;;;;;;-1.47;50.86;94791.53;4980253;28;20038;-68
2024/01/10 15:34:12;;;;;;;42.67;27.77;;;;;;;-1.66;50.90;94776.84;4981897;28;20047;-67
2024/01/10 15:36:41;;;;;;;75.47;44.78;;;;;;;-1.61;51.05;94797.06;4976161;28;20049;-67
2024/01/10 15:39:07;;;;;;;80.68;36.50;;;;;;;-1.76;51.27;94796.59;4979010;28;20454;-67
2024/01/10 15:41:32;;;;;;;120.10;52.00;;;;;;;-1.85;51.56;94796.06;4980358;28;20041;-67
2024/01/10 15:43:58;;;;;;;75.28;34.08;;;;;;;-1.93;51.55;94781.44;4990946;28;20034;-67
2024/01/10 15:46:23;;;;;;;40.90;21.40;;;;;;;-1.82;51.64;94798.22;4971727;28;20316;-68
2024/01/10 15:48:49;;;;;;;103.72;43.42;;;;;;;-1.96;51.85;94783.69;4977399;28;20069;-73
2024/01/10 15:51:14;;;;;;;39.95;21.55;;;;;;;-2.08;51.87;94770.53;4973867;28;20041;-67
2024/01/10 15:53:40;;;;;;;68.30;33.40;;;;;;;-2.27;52.20;94761.84;4976452;28;20053;-68
2024/01/10 15:56:05;;;;;;;33.97;16.58;;;;;;;-2.11;52.13;94797.03;4975182;28;20039;-68
2024/01/10 15:58:32;;;;;;;20.65;14.23;;;;;;;-2.08;52.20;94786.16;4977659;28;20042;-68
2024/01/10 16:00:58;;;;;;;34.80;21.77;;;;;;;-2.05;51.89;94790.97;4975151;28;20111;-68
2024/01/10 16:03:24;;;;;;;40.25;23.60;;;;;;;-2.06;51.80;94773.72;4971122;28;20110;-68
2024/01/10 16:05:52;;;;;;;53.92;27.00;;;;;;;-2.01;51.70;94797.38;4977730;28;20075;-68
2024/01/10 16:08:18;;;;;;;55.28;25.27;;;;;;;-2.09;51.72;94789.78;4975929;28;20478;-68
2024/01/10 16:10:43;;;;;;;34.63;18.13;;;;;;;-1.98;51.69;94790.91;4975770;28;20035;-68
2024/01/10 16:13:08;;;;;;;27.85;14.50;;;;;;;-2.09;51.85;94784.56;4973661;28;20053;-68
2024/01/10 16:15:34;;;;;;;38.05;19.83;;;;;;;-2.11;52.12;94797.03;4969557;28;20045;-68
2024/01/10 16:17:59;;;;;;;28.90;15.65;;;;;;;-2.01;51.96;94786.13;4978261;28;20182;-68
2024/01/10 16:20:24;;;;;;;25.30;12.93;;;;;;;-2.07;51.89;94797.41;4972282;28;20541;-67
2024/01/10 16:22:50;;;;;;;32.72;17.80;;;;;;;-2.01;52.11;94805.19;4979711;28;20035;-68
2024/01/10 16:25:15;;;;;;;45.83;24.65;;;;;;;-2.17;51.98;94782.22;4976607;28;20050;-68
2024/01/10 16:27:41;;;;;;;43.83;22.20;;;;;;;-2.10;51.93;94790.00;5052085;28;20030;-68
2024/01/10 16:30:06;;;;;;;33.80;19.98;;;;;;;-2.29;52.17;94794.34;4976732;28;20498;-68
2024/01/10 16:32:32;;;;;;;37.58;20.48;;;;;;;-2.36;51.97;94790.97;4973584;28;20065;-68
2024/01/10 16:34:57;;;;;;;26.98;17.52;;;;;;;-2.27;52.29;94802.72;4972735;28;20030;-68
2024/01/10 16:37:23;;;;;;;32.97;20.10;;;;;;;-2.21;51.66;94812.31;4974521;28;21348;-68
2024/01/10 16:39:48;;;;;;;30.40;18.55;;;;;;;-2.20;51.81;94807.91;4968639;28;20433;-68
2024/01/10 16:42:14;;;;;;;25.27;14.75;;;;;;;-2.17;51.82;94813.50;5043664;28;20048;-68
2024/01/10 16:44:39;;;;;;;20.75;12.68;;;;;;;-2.15;52.00;94814.09;4972223;28;20880;-68
2024/01/10 16:47:06;;;;;;;21.67;11.82;;;;;;;-2.02;52.09;94819.22;4973566;28;20069;-68
2024/01/10 16:49:32;;;;;;;21.83;13.32;;;;;;;-2.05;52.32;94818.84;4980318;28;20525;-68
2024/01/10 16:51:57;;;;;;;24.92;16.45;;;;;;;-2.06;52.22;94817.25;4972525;28;20626;-68
2024/01/10 16:54:23;;;;;;;28.77;16.80;;;;;;;-2.06;52.51;94822.47;4977402;28;21065;-68
2024/01/10 16:56:49;;;;;;;33.90;19.20;;;;;;;-2.02;52.42;94829.66;4977506;28;20033;-68
2024/01/10 16:59:15;;;;;;;31.42;17.20;;;;;;;-2.02;51.89;94808.78;4977438;28;20050;-68
2024/01/10 17:01:41;;;;;;;40.05;22.75;;;;;;;-1.94;51.83;94823.38;4973523;28;20068;-68
2024/01/10 17:04:06;;;;;;;40.38;23.50;;;;;;;-2.18;51.91;94824.94;4972271;28;20042;-68
2024/01/10 17:06:32;;;;;;;43.38;24.20;;;;;;;-2.31;51.94;94817.19;4978938;28;20030;-68
2024/01/10 17:08:58;;;;;;;109.68;53.83;;;;;;;-2.34;51.85;94820.22;4979195;28;20044;-68
2024/01/10 17:11:23;;;;;;;92.13;45.25;;;;;;;-2.29;51.69;94808.13;4985096;28;20057;-68
2024/01/10 17:13:48;;;;;;;57.53;29.73;;;;;;;-2.13;51.71;94822.50;4978944;28;20491;-67
2024/01/10 17:16:14;;;;;;;61.30;33.97;;;;;;;-2.20;51.75;94834.78;4975961;28;20149;-70
2024/01/10 17:18:39;;;;;;;41.13;24.00;;;;;;;-2.25;51.76;94808.53;4979851;28;20408;-70
2024/01/10 17:21:05;;;;;;;87.05;38.65;;;;;;;-2.52;51.71;94805.25;4974029;28;20049;-70
2024/01/10 17:23:31;;;;;;;94.35;47.50;;;;;;;-2.49;52.11;94830.91;4983542;28;20030;-70
2024/01/10 17:25:56;;;;;;;53.03;26.65;;;;;;;-2.48;52.11;94819.47;4977178;28;20061;-69
2024/01/10 17:28:22;;;;;;;85.72;40.83;;;;;;;-2.46;52.02;94814.84;4979525;28;20048;-69
2024/01/10 17:30:48;;;;;;;48.80;27.92;;;;;;;-2.38;51.92;94827.63;4977088;28;20577;-69
2024/01/10 17:33:13;;;;;;;31.75;18.63;;;;;;;-2.40;51.78;94836.69;4976186;28;20359;-68
2024/01/10 17:35:39;;;;;;;49.13;22.55;;;;;;;-2.51;51.98;94826.91;4971699;28;20046;-70
2024/01/10 17:38:06;;;;;;;71.20;30.10;;;;;;;-2.68;51.98;94805.72;4982027;28;20418;-70
2024/01/10 17:40:31;;;;;;;109.75;41.95;;;;;;;-2.47;51.94;94835.91;4978651;28;20705;-69
2024/01/10 17:42:56;;;;;;;84.13;36.10;;;;;;;-2.44;51.68;94832.91;4981823;28;20043;-70
2024/01/10 17:45:22;;;;;;;54.67;30.63;;;;;;;-2.57;51.64;94832.94;5047854;28;20066;-69
2024/01/10 17:47:47;;;;;;;38.25;21.20;;;;;;;-2.56;51.63;94840.53;4978735;28;20501;-70
2024/01/10 17:50:13;;;;;;;18.92;11.55;;;;;;;-2.90;51.51;94796.59;4980947;28;20485;-69
2024/01/10 17:52:38;;;;;;;23.88;16.30;;;;;;;-2.77;51.61;94812.16;4977910;28;20498;-70
2024/01/10 17:55:04;;;;;;;13.32;11.05;;;;;;;-2.62;51.77;94833.56;4981447;28;20453;-70
2024/01/10 17:57:29;;;;;;;11.30;9.45;;;;;;;-2.69;51.65;94822.38;4979910;28;20058;-70
2024/01/10 17:59:56;;;;;;;12.60;9.38;;;;;;;-2.61;51.70;94834.34;4982573;28;20596;-70
2024/01/10 18:02:21;;;;;;;11.75;9.85;;;;;;;-2.59;51.67;94837.56;4982417;28;20046;-70
2024/01/10 18:04:48;;;;;;;9.80;7.63;;;;;;;-2.56;51.77;94839.75;4981655;28;20039;-69
2024/01/10 18:07:14;;;;;;;16.83;11.32;;;;;;;-2.81;51.50;94806.59;4984103;28;20569;-70
2024/01/10 18:09:40;;;;;;;26.35;17.90;;;;;;;-2.73;51.66;94819.38;4986402;28;20040;-70
2024/01/10 18:12:06;;;;;;;19.65;14.43;;;;;;;-2.71;51.87;94843.41;4984413;28;20451;-70
2024/01/10 18:14:33;;;;;;;11.90;10.13;;;;;;;-2.77;52.08;94838.22;4979232;28;20038;-69
2024/01/10 18:16:59;;;;;;;8.30;7.28;;;;;;;-2.84;52.37;94822.63;4984909;28;20041;-70
2024/01/10 18:19:24;;;;;;;7.68;5.63;;;;;;;-2.75;52.44;94826.59;5054988;28;20120;-69
2024/01/10 18:21:51;;;;;;;7.45;4.72;;;;;;;-2.74;52.24;94828.22;4985757;28;20047;-70
2024/01/10 18:24:16;;;;;;;9.00;6.20;;;;;;;-2.64;51.84;94842.59;4982994;28;20734;-70
2024/01/10 18:26:42;;;;;;;6.95;5.43;;;;;;;-2.90;51.79;94797.41;4977135;28;20507;-69
2024/01/10 18:29:07;;;;;;;9.23;6.28;;;;;;;-2.62;51.65;94846.56;4970989;28;20038;-69
2024/01/10 18:31:33;;;;;;;12.95;8.52;;;;;;;-2.71;52.04;94846.00;4977047;28;20053;-70
2024/01/10 18:34:01;;;;;;;15.57;10.07;;;;;;;-2.80;52.38;94842.03;4975100;28;20897;-69
2024/01/10 18:36:26;;;;;;;14.10;9.35;;;;;;;-3.02;52.39;94824.28;4977322;28;20034;-69
2024/01/10 18:38:51;;;;;;;12.63;8.65;;;;;;;-3.00;52.58;94843.09;4977713;28;20358;-69
2024/01/10 18:41:17;;;;;;;14.43;9.60;;;;;;;-3.03;52.80;94839.09;4982926;28;20637;-69
2024/01/10 18:43:42;;;;;;;17.90;11.00;;;;;;;-2.95;52.43;94830.25;4971682;28;20489;-70
2024/01/10 18:46:10;;;;;;;14.98;9.85;;;;;;;-2.97;52.76;94838.25;4973628;28;20056;-69